Terminal Aerodrome Forecast
Issued by NWS

Current Version | Previous Version | Text Only | Print | Product List | Glossary Off
Versions: 1 2 3 4 5 6 7 8 9 10 11 12 13 14 15

335
FTUS41 KILN 101502 AAA
TAFLUK
TAF AMD
KLUK 101502Z 1015/1112 22012G20KT P6SM BKN080
     FM102200 23007KT P6SM SCT150
     FM110600 27003KT P6SM FEW040 SCT200=

USA.gov is the U.S. government's official web portal to all federal, state and local government web resources and services.